createdAt,value
2017-05-11T00:00:21.694Z,23.55
2017-05-11T00:01:21.337Z,23.6
2017-05-11T00:02:21.702Z,23.6
2017-05-11T00:03:21.708Z,23.61
2017-05-11T00:04:21.712Z,23.58
2017-05-11T00:05:21.771Z,23.6
2017-05-11T00:06:21.363Z,23.57
2017-05-11T00:07:21.685Z,23.58
2017-05-11T00:08:21.691Z,23.58
2017-05-11T00:09:21.701Z,23.65
2017-05-11T00:10:21.751Z,23.61
2017-05-11T00:11:21.447Z,23.6
2017-05-11T00:12:21.407Z,23.66
2017-05-11T00:13:21.730Z,23.58
2017-05-11T00:14:21.778Z,23.58
2017-05-11T00:15:21.739Z,23.68
2017-05-11T00:16:21.744Z,23.63
2017-05-11T00:17:21.746Z,23.66
2017-05-11T00:18:21.754Z,23.54
2017-05-11T00:19:21.762Z,23.66
2017-05-11T00:20:21.771Z,23.68
2017-05-11T00:21:21.775Z,23.55
2017-05-11T00:22:21.781Z,23.69
2017-05-11T00:23:21.477Z,23.57
2017-05-11T00:24:21.847Z,23.68
2017-05-11T00:25:21.851Z,23.57
2017-05-11T00:26:21.848Z,23.6
2017-05-11T00:27:21.811Z,23.72
2017-05-11T00:28:21.821Z,23.66
2017-05-11T00:29:21.877Z,23.72
2017-05-11T00:30:21.524Z,23.55
2017-05-11T00:31:21.267Z,23.55
2017-05-11T00:32:21.853Z,23.66
2017-05-11T00:33:21.856Z,23.57
2017-05-11T00:34:21.858Z,23.69
2017-05-11T00:35:21.867Z,23.63
2017-05-11T00:36:21.870Z,23.76
2017-05-11T00:37:21.879Z,23.72
2017-05-11T00:38:21.882Z,23.69
2017-05-11T00:39:21.897Z,23.75
2017-05-11T00:40:21.946Z,23.68
2017-05-11T00:41:21.903Z,23.61
2017-05-11T00:42:21.599Z,23.63
2017-05-11T00:43:21.913Z,23.65
2017-05-11T00:44:21.610Z,23.75
2017-05-11T00:45:21.619Z,23.65
2017-05-11T00:46:21.934Z,23.7
2017-05-11T00:47:21.988Z,23.68
2017-05-11T00:48:21.689Z,23.68
2017-05-11T00:49:21.959Z,23.69
2017-05-11T00:50:21.648Z,23.7
2017-05-11T00:51:21.706Z,23.66
2017-05-11T00:52:21.975Z,23.72
2017-05-11T00:53:21.983Z,23.69
2017-05-11T00:54:21.988Z,23.76
2017-05-11T00:55:21.995Z,23.68
2017-05-11T00:56:21.997Z,23.75
2017-05-11T00:57:22.005Z,23.75
2017-05-11T00:58:22.064Z,23.76
2017-05-11T00:59:21.705Z,23.68
2017-05-11T01:00:22.029Z,23.68
2017-05-11T01:01:22.035Z,23.76
2017-05-11T01:02:21.729Z,23.84
2017-05-11T01:03:21.738Z,23.69
2017-05-11T01:04:21.790Z,23.66
2017-05-11T01:05:22.063Z,23.76
2017-05-11T01:06:21.474Z,23.69
2017-05-11T01:07:22.071Z,23.75
2017-05-11T01:08:22.084Z,23.69
2017-05-11T01:09:22.081Z,23.72
2017-05-11T01:10:22.094Z,23.73
2017-05-11T01:11:22.095Z,23.72
2017-05-11T01:12:22.107Z,23.75
2017-05-11T01:13:21.798Z,23.78
2017-05-11T01:14:22.122Z,23.73
2017-05-11T01:15:21.808Z,23.78
2017-05-11T01:16:21.874Z,23.68
2017-05-11T01:17:21.516Z,23.73
2017-05-11T01:18:21.882Z,23.73
2017-05-11T01:19:22.199Z,23.85
2017-05-11T01:20:22.152Z,23.8
2017-05-11T01:21:22.209Z,23.78
2017-05-11T01:22:22.165Z,23.84
2017-05-11T01:23:21.864Z,23.78
2017-05-11T01:24:22.179Z,23.91
2017-05-11T01:25:22.182Z,23.9
2017-05-11T01:26:22.191Z,23.87
2017-05-11T01:27:22.248Z,23.88
2017-05-11T01:28:21.896Z,23.78
2017-05-11T01:29:22.516Z,23.76
2017-05-11T01:30:22.215Z,23.91
2017-05-11T01:31:22.221Z,23.8
2017-05-11T01:32:22.229Z,23.79
2017-05-11T01:33:21.925Z,23.78
2017-05-11T01:34:21.931Z,23.76
2017-05-11T01:35:22.300Z,23.79
2017-05-11T01:36:21.943Z,23.76
2017-05-11T01:37:22.261Z,23.84
2017-05-11T01:38:22.327Z,23.79
2017-05-11T01:39:22.320Z,23.76
2017-05-11T01:40:22.020Z,23.84
2017-05-11T01:41:22.286Z,23.75
2017-05-11T01:42:22.301Z,23.79
2017-05-11T01:43:22.305Z,23.76
2017-05-11T01:44:21.995Z,23.78
2017-05-11T01:45:22.312Z,23.88
2017-05-11T01:46:22.313Z,23.84
2017-05-11T01:47:22.324Z,23.87
2017-05-11T01:48:22.384Z,23.73
2017-05-11T01:49:22.339Z,23.84
2017-05-11T01:50:22.347Z,23.83
2017-05-11T01:51:22.038Z,23.84
2017-05-11T01:52:22.406Z,23.87
2017-05-11T01:53:22.366Z,23.79
2017-05-11T01:54:22.371Z,23.78
2017-05-11T01:55:22.068Z,23.78
2017-05-11T01:56:22.382Z,23.85
2017-05-11T01:57:22.389Z,23.84
2017-05-11T01:58:22.148Z,23.78
2017-05-11T01:59:22.402Z,23.8
2017-05-11T02:00:22.461Z,23.88
2017-05-11T02:01:22.115Z,23.83
2017-05-11T02:02:22.418Z,23.94
2017-05-11T02:03:22.493Z,23.88
2017-05-11T02:04:22.429Z,23.87
2017-05-11T02:05:22.130Z,23.78
2017-05-11T02:06:22.444Z,23.84
2017-05-11T02:07:22.139Z,23.88
2017-05-11T02:08:22.456Z,23.79
2017-05-11T02:09:22.518Z,23.84
2017-05-11T02:10:22.475Z,23.85
2017-05-11T02:11:22.168Z,23.88
2017-05-11T02:12:22.481Z,23.9
2017-05-11T02:13:22.495Z,23.84
2017-05-11T02:14:22.545Z,23.94
2017-05-11T02:19:09.014Z,23.9
2017-05-11T02:20:09.020Z,23.87
2017-05-11T02:21:09.030Z,23.87
2017-05-11T02:22:09.078Z,23.93
2017-05-11T02:23:09.040Z,23.94
2017-05-11T02:24:08.787Z,23.97
2017-05-11T02:25:09.050Z,23.94
2017-05-11T02:26:09.057Z,23.98
2017-05-11T02:27:08.752Z,23.94
2017-05-11T02:28:09.122Z,23.9
2017-05-11T02:29:08.770Z,23.88
2017-05-11T02:30:08.776Z,23.93
2017-05-11T02:31:09.093Z,23.95
2017-05-11T02:32:09.096Z,23.97
2017-05-11T02:33:09.103Z,23.93
2017-05-11T02:34:09.109Z,24
2017-05-11T02:35:08.810Z,24.03
2017-05-11T02:36:08.861Z,23.9
2017-05-11T02:37:09.131Z,24
2017-05-11T02:38:09.138Z,23.94
2017-05-11T02:39:09.144Z,23.85
2017-05-11T02:40:08.893Z,23.93
2017-05-11T02:41:09.154Z,23.94
2017-05-11T02:42:08.851Z,23.95
2017-05-11T02:43:09.174Z,23.91
2017-05-11T02:44:08.863Z,23.95
2017-05-11T02:45:08.869Z,23.93
2017-05-11T02:46:08.876Z,23.9
2017-05-11T02:47:09.195Z,23.98
2017-05-11T02:48:08.938Z,24.06
2017-05-11T02:49:08.897Z,23.98
2017-05-11T02:50:09.264Z,23.91
2017-05-11T02:51:09.219Z,23.93
2017-05-11T02:52:09.230Z,23.88
2017-05-11T02:53:09.230Z,23.9
2017-05-11T02:54:09.249Z,23.88
2017-05-11T02:55:09.245Z,23.95
2017-05-11T02:56:08.937Z,24.03
2017-05-11T02:57:09.259Z,23.97
2017-05-11T02:58:09.268Z,24
2017-05-11T02:59:08.960Z,24.03
2017-05-11T03:00:09.278Z,23.97
2017-05-11T03:01:08.970Z,24.02
2017-05-11T03:02:09.297Z,23.97
2017-05-11T03:03:09.042Z,24.05
2017-05-11T03:04:09.302Z,24.02
2017-05-11T03:05:09.359Z,24.03
2017-05-11T03:06:08.692Z,23.95
2017-05-11T03:07:09.323Z,23.98
2017-05-11T03:08:09.019Z,23.95
2017-05-11T03:09:09.024Z,24.05
2017-05-11T03:10:09.390Z,24
2017-05-11T03:11:09.346Z,24.08
2017-05-11T03:12:10.044Z,24
2017-05-11T03:13:09.365Z,24.02
2017-05-11T03:14:09.055Z,24.06
2017-05-11T03:15:09.418Z,24.09
2017-05-11T03:16:09.427Z,24.1
2017-05-11T03:17:09.384Z,24.06
2017-05-11T03:18:09.393Z,23.98
2017-05-11T03:19:09.096Z,24.05
2017-05-11T03:20:08.783Z,23.98
2017-05-11T03:21:09.450Z,24.05
2017-05-11T03:22:09.417Z,24.02
2017-05-11T03:23:09.419Z,24.1
2017-05-11T03:24:09.438Z,24
2017-05-11T03:25:09.174Z,24.08
2017-05-11T03:26:09.133Z,24.06
2017-05-11T03:27:09.450Z,24.08
2017-05-11T03:28:08.831Z,24.1
2017-05-11T03:29:09.529Z,24.15
2017-05-11T03:30:09.155Z,24.18
2017-05-11T03:31:09.481Z,24.2
2017-05-11T03:32:09.490Z,24.09
2017-05-11T03:33:09.536Z,24.16
2017-05-11T03:34:09.180Z,24.09
2017-05-11T03:35:09.202Z,24.2
2017-05-11T03:36:09.521Z,24.24
2017-05-11T03:37:09.512Z,24.05
2017-05-11T03:38:09.518Z,24.12
2017-05-11T03:39:09.575Z,24.16
2017-05-11T03:40:09.233Z,24.16
2017-05-11T03:41:09.287Z,24.27
2017-05-11T03:42:09.610Z,24.13
2017-05-11T03:43:09.566Z,24.13
2017-05-11T03:44:09.569Z,24.09
2017-05-11T03:45:09.561Z,24.16
2017-05-11T03:46:09.290Z,24.1
2017-05-11T03:47:09.007Z,24.21
2017-05-11T03:48:09.579Z,24.22
2017-05-11T03:49:09.276Z,24.16
2017-05-11T03:50:09.605Z,24.21
2017-05-11T03:51:09.601Z,24.25
2017-05-11T03:52:09.603Z,24.16
2017-05-11T03:53:09.663Z,24.18
2017-05-11T03:54:09.668Z,24.16
2017-05-11T03:55:09.667Z,24.15
2017-05-11T03:56:09.636Z,24.2
2017-05-11T03:57:09.327Z,24.22
2017-05-11T03:58:09.389Z,24.15
2017-05-11T03:59:09.707Z,24.2
2017-05-11T04:00:09.658Z,24.22
2017-05-11T04:01:09.713Z,24.21
2017-05-11T04:02:09.674Z,24.22
2017-05-11T04:03:09.681Z,24.2
2017-05-11T04:04:09.373Z,24.21
2017-05-11T04:05:09.701Z,24.21
2017-05-11T04:06:09.696Z,24.21
2017-05-11T04:07:09.707Z,24.28
2017-05-11T04:08:09.087Z,24.16
2017-05-11T04:09:09.765Z,24.2
2017-05-11T04:10:09.743Z,24.25
2017-05-11T04:11:09.781Z,24.25
2017-05-11T04:12:09.749Z,24.31
2017-05-11T04:13:09.758Z,24.24
2017-05-11T04:14:09.441Z,24.24
2017-05-11T04:15:09.754Z,24.22
2017-05-11T04:16:09.511Z,24.24
2017-05-11T04:17:09.765Z,24.21
2017-05-11T04:18:09.776Z,24.25
2017-05-11T04:19:09.791Z,24.28
2017-05-11T04:20:09.837Z,24.2
2017-05-11T04:21:09.797Z,24.24
2017-05-11T04:22:09.181Z,24.22
2017-05-11T04:23:09.866Z,24.24
2017-05-11T04:24:09.552Z,24.18
2017-05-11T04:25:09.822Z,24.13
2017-05-11T04:26:09.564Z,24.22
2017-05-11T04:27:09.836Z,24.15
2017-05-11T04:28:09.839Z,24.22
2017-05-11T04:29:09.847Z,24.18
2017-05-11T04:30:09.538Z,24.18
2017-05-11T04:31:09.856Z,24.21
2017-05-11T04:32:09.291Z,24.22
2017-05-11T04:33:09.873Z,24.37
2017-05-11T04:34:09.878Z,24.34
2017-05-11T04:35:09.883Z,24.32
2017-05-11T04:36:09.890Z,24.35
2017-05-11T04:37:09.899Z,24.4
2017-05-11T04:38:09.907Z,24.35
2017-05-11T04:39:09.922Z,24.42
2017-05-11T04:40:09.297Z,24.45
2017-05-11T04:41:09.663Z,24.45
2017-05-11T04:42:09.620Z,24.45
2017-05-11T04:43:09.943Z,24.49
2017-05-11T04:44:09.955Z,24.6
2017-05-11T04:45:09.662Z,24.52
2017-05-11T04:46:09.959Z,24.68
2017-05-11T04:47:09.704Z,24.61
2017-05-11T04:48:09.963Z,24.76
2017-05-11T04:49:09.989Z,24.83
2017-05-11T04:50:09.676Z,24.87
2017-05-11T04:51:09.996Z,24.93
2017-05-11T04:52:09.693Z,24.87
2017-05-11T04:53:09.706Z,24.96
2017-05-11T04:54:10.017Z,24.98
2017-05-11T04:55:10.030Z,25.05
2017-05-11T04:56:10.032Z,25.08
2017-05-11T04:57:10.043Z,25.08
2017-05-11T04:58:09.739Z,25.06
2017-05-11T04:59:10.109Z,25.14
2017-05-11T05:00:09.807Z,25.2
2017-05-11T05:01:10.070Z,25.28
2017-05-11T05:02:09.772Z,25.13
2017-05-11T05:03:10.092Z,25.25
2017-05-11T05:04:09.834Z,25.33
2017-05-11T05:05:09.841Z,25.55
2017-05-11T05:06:09.801Z,25.58
2017-05-11T05:07:10.121Z,25.62
2017-05-11T05:08:09.826Z,25.52
2017-05-11T05:09:10.135Z,25.52
2017-05-11T05:10:09.835Z,25.51
2017-05-11T05:11:10.152Z,25.5
2017-05-11T05:12:09.847Z,25.61
2017-05-11T05:13:09.854Z,25.72
2017-05-11T05:14:10.172Z,25.69
2017-05-11T05:15:10.187Z,25.65
2017-05-11T05:16:09.875Z,25.73
2017-05-11T05:17:09.938Z,25.76
2017-05-11T05:18:09.895Z,25.69
2017-05-11T05:19:10.222Z,25.72
2017-05-11T05:20:09.911Z,25.67
2017-05-11T05:21:09.923Z,25.7
2017-05-11T05:22:10.253Z,25.9
2017-05-11T05:23:10.248Z,25.92
2017-05-11T05:24:09.944Z,25.98
2017-05-11T05:25:10.314Z,26.05
2017-05-11T05:26:10.269Z,26.25
2017-05-11T05:27:09.664Z,26.18
2017-05-11T05:28:10.027Z,26.29
2017-05-11T05:29:09.987Z,26.25
2017-05-11T05:30:09.998Z,26.35
2017-05-11T05:31:10.319Z,26.36
2017-05-11T05:32:10.382Z,26.51
2017-05-11T05:33:10.339Z,26.45
2017-05-11T05:34:10.392Z,26.47
2017-05-11T05:35:10.036Z,26.39
2017-05-11T05:36:10.048Z,26.45
2017-05-11T05:37:10.356Z,26.47
2017-05-11T05:38:09.754Z,26.48
2017-05-11T05:39:10.389Z,26.47
2017-05-11T05:40:09.771Z,26.65
2017-05-11T05:41:10.095Z,26.69
2017-05-11T05:42:10.420Z,26.66
2017-05-11T05:43:10.422Z,26.84
2017-05-11T05:44:10.172Z,26.82
2017-05-11T05:45:09.816Z,26.87
2017-05-11T05:46:09.826Z,26.87
2017-05-11T05:47:10.459Z,26.84
2017-05-11T05:48:10.467Z,26.87
2017-05-11T05:49:10.477Z,26.85
2017-05-11T05:50:10.507Z,26.89
2017-05-11T05:51:10.547Z,26.97
2017-05-11T05:52:10.195Z,27.12
2017-05-11T05:53:10.513Z,27.24
2017-05-11T05:54:10.522Z,27.55
2017-05-11T05:55:10.222Z,27.81
2017-05-11T05:56:10.280Z,27.85
2017-05-11T05:57:10.606Z,27.99
2017-05-11T05:58:10.610Z,28.11
2017-05-11T05:59:10.571Z,28.31
2017-05-11T06:00:09.956Z,28.66
2017-05-11T06:01:10.591Z,28.67
2017-05-11T06:02:10.649Z,28.71
2017-05-11T06:03:10.300Z,29
2017-05-11T06:04:10.620Z,28.74
2017-05-11T06:05:10.375Z,28.51
2017-05-11T06:06:10.639Z,28.48
2017-05-11T06:07:10.337Z,28.55
2017-05-11T06:08:10.345Z,28.81
2017-05-11T06:09:10.666Z,28.9
2017-05-11T06:10:10.368Z,29.24
2017-05-11T06:11:10.690Z,29.37
2017-05-11T06:12:10.700Z,29.53
2017-05-11T06:13:10.399Z,29.74
2017-05-11T06:14:10.458Z,29.9
2017-05-11T06:15:10.724Z,30.24
2017-05-11T06:16:10.771Z,30.49
2017-05-11T06:17:10.745Z,30.38
2017-05-11T06:18:10.756Z,30.43
2017-05-11T06:19:10.772Z,30.51
2017-05-11T06:20:10.776Z,30.61
2017-05-11T06:21:10.837Z,30.47
2017-05-11T06:22:10.850Z,30.35
2017-05-11T06:23:10.805Z,30.42
2017-05-11T06:24:10.817Z,30.6
2017-05-11T06:25:10.516Z,30.84
2017-05-11T06:26:10.529Z,31.06
2017-05-11T06:27:10.589Z,31.02
2017-05-11T06:28:10.860Z,31.12
2017-05-11T06:29:10.565Z,31.21
2017-05-11T06:30:10.879Z,31.5
2017-05-11T06:31:10.890Z,31.69
2017-05-11T06:32:10.957Z,31.8
2017-05-11T06:33:10.649Z,31.93
2017-05-11T06:34:10.610Z,31.85
2017-05-11T06:35:10.981Z,31.92
2017-05-11T06:36:10.941Z,31.88
2017-05-11T06:37:10.694Z,31.93
2017-05-11T06:38:10.805Z,31.21
2017-05-11T06:39:10.976Z,30.62
2017-05-11T06:40:10.986Z,30.58
2017-05-11T06:41:11.037Z,30.97
2017-05-11T06:42:11.009Z,30.8
2017-05-11T06:43:11.068Z,31.38
2017-05-11T06:44:10.818Z,31.8
2017-05-11T06:45:10.729Z,31.92
2017-05-11T06:46:11.108Z,32.08
2017-05-11T06:47:10.755Z,32.1
2017-05-11T06:48:10.767Z,32.15
2017-05-11T06:49:11.099Z,32.41
2017-05-11T06:50:11.096Z,32.25
2017-05-11T06:51:11.109Z,32.25
2017-05-11T06:52:11.166Z,32.43
2017-05-11T06:53:10.816Z,32.48
2017-05-11T06:54:10.668Z,32.48
2017-05-11T06:55:11.206Z,32.51
2017-05-11T06:56:11.165Z,32.26
2017-05-11T06:57:11.175Z,32.33
2017-05-11T06:58:11.235Z,32.41
2017-05-11T06:59:10.894Z,32.51
2017-05-11T07:00:11.209Z,32.43
2017-05-11T07:01:11.222Z,32.26
2017-05-11T07:02:11.286Z,32.44
2017-05-11T07:03:10.932Z,32.38
2017-05-11T07:04:10.948Z,32.59
2017-05-11T07:05:11.267Z,32.7
2017-05-11T07:06:11.335Z,32.87
2017-05-11T07:07:11.289Z,32.92
2017-05-11T07:08:11.303Z,32.93
2017-05-11T07:09:11.311Z,32.89
2017-05-11T07:10:10.748Z,32.82
2017-05-11T07:11:11.338Z,32.88
2017-05-11T07:12:11.042Z,32.89
2017-05-11T07:13:11.365Z,32.87
2017-05-11T07:14:11.374Z,32.88
2017-05-11T07:15:11.382Z,33.03
2017-05-11T07:16:11.394Z,33.04
2017-05-11T07:17:11.457Z,32.84
2017-05-11T07:18:11.422Z,32.52
2017-05-11T07:19:11.431Z,32.33
2017-05-11T07:20:11.451Z,32.45
2017-05-11T07:21:11.458Z,32.88
2017-05-11T07:22:11.465Z,33.01
2017-05-11T07:23:11.482Z,33.04
2017-05-11T07:24:11.177Z,32.13
2017-05-11T07:25:11.192Z,30.57
2017-05-11T07:26:11.203Z,28.52
2017-05-11T07:27:11.215Z,27.51
2017-05-11T07:28:11.224Z,26.97
2017-05-11T07:29:11.548Z,26.67
2017-05-11T07:30:11.609Z,26.45
2017-05-11T07:31:11.257Z,26.43
2017-05-11T07:32:11.585Z,26.44
2017-05-11T07:33:11.694Z,26.55
2017-05-11T07:34:11.600Z,26.65
2017-05-11T07:35:11.708Z,26.55
2017-05-11T07:36:11.356Z,26.37
2017-05-11T07:37:11.316Z,26.45
2017-05-11T07:38:11.633Z,26.37
2017-05-11T07:39:11.336Z,26.48
2017-05-11T07:40:11.717Z,26.63
2017-05-11T07:41:11.043Z,26.47
2017-05-11T07:42:11.359Z,26.5
2017-05-11T07:43:11.683Z,26.58
2017-05-11T07:44:11.428Z,26.48
2017-05-11T07:45:11.699Z,26.5
2017-05-11T07:46:11.081Z,26.5
2017-05-11T07:47:11.760Z,26.63
2017-05-11T07:48:11.771Z,26.75
2017-05-11T07:49:11.729Z,26.72
2017-05-11T07:50:11.735Z,26.62
2017-05-11T07:51:11.796Z,26.5
2017-05-11T07:52:11.541Z,26.58
2017-05-11T07:53:11.769Z,26.65
2017-05-11T07:54:12.072Z,26.66
2017-05-11T07:55:11.831Z,26.51
2017-05-11T07:56:11.786Z,26.51
2017-05-11T07:57:11.798Z,26.47
2017-05-11T07:58:11.541Z,26.44
2017-05-11T07:59:11.862Z,26.39
2017-05-11T08:00:11.508Z,26.4
2017-05-11T08:01:11.826Z,26.4
2017-05-11T08:02:11.885Z,26.39
2017-05-11T08:03:11.845Z,26.39
2017-05-11T08:04:11.902Z,26.36
2017-05-11T08:05:11.955Z,26.37
2017-05-11T08:06:11.248Z,26.39
2017-05-11T08:07:11.305Z,26.32
2017-05-11T08:08:11.883Z,26.25
2017-05-11T08:09:11.889Z,26.1
2017-05-11T08:10:11.899Z,25.98
2017-05-11T08:11:11.961Z,26.05
2017-05-11T08:12:11.914Z,25.97
2017-05-11T08:13:11.610Z,25.97
2017-05-11T08:14:12.285Z,26.01
2017-05-11T08:15:11.680Z,25.9
2017-05-11T08:16:11.690Z,25.9
2017-05-11T08:17:11.955Z,25.87
2017-05-11T08:18:12.061Z,25.82
2017-05-11T08:19:12.025Z,25.83
2017-05-11T08:20:11.680Z,25.9
2017-05-11T08:21:12.050Z,25.9
2017-05-11T08:22:12.059Z,25.9
2017-05-11T08:23:12.013Z,25.85
2017-05-11T08:24:11.697Z,25.51
2017-05-11T08:25:12.026Z,25.36
2017-05-11T08:26:12.028Z,25.46
2017-05-11T08:27:11.727Z,25.5
2017-05-11T08:28:12.035Z,25.33
2017-05-11T08:29:12.103Z,25.1
2017-05-11T08:30:12.059Z,25.25
2017-05-11T08:31:12.054Z,25.4
2017-05-11T08:32:11.541Z,25.36
2017-05-11T08:33:11.753Z,25.45
2017-05-11T08:34:11.753Z,25.32
2017-05-11T08:35:12.072Z,25.15
2017-05-11T08:36:12.077Z,25.2
2017-05-11T08:37:12.136Z,25.18
2017-05-11T08:38:12.090Z,25.14
2017-05-11T08:39:12.091Z,25.05
2017-05-11T08:40:11.804Z,25.15
2017-05-11T08:41:12.152Z,25.03
2017-05-11T08:42:11.797Z,25.1
2017-05-11T08:43:11.807Z,25.13
2017-05-11T08:44:11.813Z,25.09
2017-05-11T08:45:12.121Z,25.13
2017-05-11T08:46:11.817Z,25.2
2017-05-11T08:47:11.822Z,25
2017-05-11T08:48:11.827Z,24.93
2017-05-11T08:49:11.879Z,25.05
2017-05-11T08:50:12.151Z,25.17
2017-05-11T08:51:12.198Z,25.27
2017-05-11T08:52:12.151Z,25.18
2017-05-11T08:53:12.167Z,25.13
2017-05-11T08:54:12.167Z,25.13
2017-05-11T08:55:12.183Z,25.13
2017-05-11T08:56:11.905Z,25.05
2017-05-11T08:57:12.288Z,25.1
2017-05-11T08:58:12.175Z,25.06
2017-05-11T08:59:12.193Z,24.96
2017-05-11T09:00:12.201Z,25.08
2017-05-11T09:01:12.241Z,25.1
2017-05-11T09:02:11.892Z,25
2017-05-11T09:03:12.259Z,24.88
2017-05-11T09:04:11.946Z,24.85
2017-05-11T09:05:12.222Z,24.55
2017-05-11T09:06:12.218Z,24.68
2017-05-11T09:07:12.222Z,24.73
2017-05-11T09:08:12.281Z,24.85
2017-05-11T09:09:12.260Z,24.96
2017-05-11T09:10:11.921Z,24.71
2017-05-11T09:11:12.298Z,24.52
2017-05-11T09:12:12.294Z,24.57
2017-05-11T09:13:11.940Z,24.58
2017-05-11T09:14:12.265Z,24.62
2017-05-11T09:15:12.262Z,24.83
2017-05-11T09:16:12.274Z,24.93
2017-05-11T09:17:12.264Z,24.98
2017-05-11T09:18:12.269Z,24.98
2017-05-11T09:19:11.964Z,24.84
2017-05-11T09:20:12.277Z,24.87
2017-05-11T09:21:11.971Z,24.67
2017-05-11T09:22:12.291Z,24.62
2017-05-11T09:23:12.344Z,24.62
2017-05-11T09:24:12.040Z,24.64
2017-05-11T09:25:12.297Z,24.57
2017-05-11T09:26:12.301Z,24.6
2017-05-11T09:27:12.313Z,24.49
2017-05-11T09:28:12.316Z,24.37
2017-05-11T09:29:12.379Z,24.28
2017-05-11T09:30:12.424Z,24.39
2017-05-11T09:31:12.336Z,24.4
2017-05-11T09:32:12.077Z,24.76
2017-05-11T09:33:12.033Z,24.52
2017-05-11T09:34:12.347Z,24.49
2017-05-11T09:35:12.360Z,24.65
2017-05-11T09:36:12.362Z,24.5
2017-05-11T09:37:12.365Z,24.67
2017-05-11T09:38:12.369Z,24.8
2017-05-11T09:39:12.427Z,24.91
2017-05-11T09:40:12.386Z,24.76
2017-05-11T09:41:12.394Z,24.83
2017-05-11T09:42:12.091Z,24.67
2017-05-11T09:43:12.402Z,24.73
2017-05-11T09:44:12.415Z,24.68
2017-05-11T09:45:12.154Z,24.58
2017-05-11T09:46:12.150Z,24.61
2017-05-11T09:47:12.429Z,24.43
2017-05-11T09:48:12.170Z,24.3
2017-05-11T09:49:12.143Z,24.3
2017-05-11T09:50:12.462Z,24.25
2017-05-11T09:51:12.452Z,24.32
2017-05-11T09:52:12.509Z,24.34
2017-05-11T09:53:12.470Z,24.24
2017-05-11T09:54:12.263Z,24.22
2017-05-11T09:55:12.474Z,24.15
2017-05-11T09:56:12.477Z,24.24
2017-05-11T09:57:12.173Z,24
2017-05-11T09:58:12.493Z,23.87
2017-05-11T09:59:11.873Z,23.75
2017-05-11T10:00:12.502Z,23.78
2017-05-11T10:01:12.558Z,24
2017-05-11T10:02:12.563Z,24.12
2017-05-11T10:03:12.207Z,24.35
2017-05-11T10:04:12.532Z,24.34
2017-05-11T10:05:12.270Z,24.5
2017-05-11T10:06:12.536Z,24.47
2017-05-11T10:07:12.543Z,24.61
2017-05-11T10:08:12.555Z,24.52
2017-05-11T10:09:12.562Z,24.57
2017-05-11T10:10:12.612Z,24.55
2017-05-11T10:11:12.257Z,24.53
2017-05-11T10:12:12.264Z,24.55
2017-05-11T10:13:12.580Z,24.58
2017-05-11T10:14:12.277Z,24.57
2017-05-11T10:15:12.593Z,24.31
2017-05-11T10:16:11.973Z,24.45
2017-05-11T10:17:12.609Z,24.58
2017-05-11T10:18:11.993Z,24.52
2017-05-11T10:19:12.613Z,24.62
2017-05-11T10:20:12.312Z,24.62
2017-05-11T10:21:12.324Z,24.68
2017-05-11T10:22:12.369Z,24.64
2017-05-11T10:23:12.326Z,24.62
2017-05-11T10:24:12.347Z,24.53
2017-05-11T10:25:12.658Z,24.69
2017-05-11T10:26:12.707Z,24.85
2017-05-11T10:27:12.416Z,24.76
2017-05-11T10:28:12.360Z,24.73
2017-05-11T10:29:12.366Z,24.87
2017-05-11T10:30:12.368Z,24.65
2017-05-11T10:31:12.686Z,24.58
2017-05-11T10:32:12.471Z,24.6
2017-05-11T10:33:12.702Z,24.52
2017-05-11T10:34:12.397Z,24.64
2017-05-11T10:35:12.710Z,24.5
2017-05-11T10:36:12.412Z,24.55
2017-05-11T10:37:12.462Z,24.55
2017-05-11T10:38:12.733Z,24.61
2017-05-11T10:39:12.424Z,24.39
2017-05-11T10:40:12.434Z,24.43
2017-05-11T10:41:12.752Z,24.6
2017-05-11T10:42:12.441Z,24.61
2017-05-11T10:43:12.761Z,24.52
2017-05-11T10:44:12.453Z,24.58
2017-05-11T10:45:12.771Z,24.68
2017-05-11T10:46:12.464Z,24.55
2017-05-11T10:47:12.833Z,24.47
2017-05-11T10:48:12.476Z,24.43
2017-05-11T10:49:12.564Z,24.45
2017-05-11T10:50:12.492Z,24.5
2017-05-11T10:51:12.549Z,24.5
2017-05-11T10:52:12.505Z,24.64
2017-05-11T10:53:12.815Z,24.58
2017-05-11T10:54:12.828Z,24.73
2017-05-11T10:55:12.518Z,24.71
2017-05-11T10:56:12.523Z,24.81
2017-05-11T10:57:12.951Z,24.57
2017-05-11T10:58:12.861Z,24.58
2017-05-11T10:59:12.902Z,24.45
2017-05-11T11:00:12.291Z,24.46
2017-05-11T11:01:13.178Z,24.35
2017-05-11T11:02:12.560Z,24.24
2017-05-11T11:03:12.928Z,24.16
2017-05-11T11:04:12.883Z,24.22
2017-05-11T11:05:12.578Z,24.3
2017-05-11T11:06:12.580Z,24.06
2017-05-11T11:07:12.945Z,23.9
2017-05-11T11:08:12.590Z,23.8
2017-05-11T11:09:12.906Z,23.83
2017-05-11T11:10:12.600Z,23.98
2017-05-11T11:11:12.919Z,23.88
2017-05-11T11:12:12.975Z,23.83
2017-05-11T11:13:12.925Z,23.9
2017-05-11T11:14:12.928Z,23.88
2017-05-11T11:15:12.935Z,23.97
2017-05-11T11:16:12.638Z,23.97
2017-05-11T11:17:12.325Z,23.91
2017-05-11T11:18:12.955Z,23.87
2017-05-11T11:19:12.656Z,23.88
2017-05-11T11:20:13.031Z,23.8
2017-05-11T11:21:12.760Z,23.65
2017-05-11T11:22:12.664Z,23.48
2017-05-11T11:23:12.984Z,23.61
2017-05-11T11:24:12.729Z,23.68
2017-05-11T11:25:12.996Z,23.75
2017-05-11T11:26:12.690Z,23.58
2017-05-11T11:27:13.008Z,23.48
2017-05-11T11:28:12.753Z,23.27
2017-05-11T11:29:13.024Z,23.13
2017-05-11T11:30:13.075Z,23.38
2017-05-11T11:31:13.036Z,23.57
2017-05-11T11:32:13.131Z,23.66
2017-05-11T11:33:13.045Z,23.6
2017-05-11T11:34:13.049Z,23.57
2017-05-11T11:35:13.071Z,23.7
2017-05-11T11:36:12.750Z,23.83
2017-05-11T11:37:13.132Z,23.84
2017-05-11T11:38:12.759Z,23.9
2017-05-11T11:39:12.771Z,23.87
2017-05-11T11:40:12.768Z,23.83
2017-05-11T11:41:13.137Z,23.85
2017-05-11T11:42:12.785Z,23.9
2017-05-11T11:43:12.788Z,23.88
2017-05-11T11:44:13.104Z,23.79
2017-05-11T11:45:13.108Z,23.75
2017-05-11T11:46:13.114Z,23.78
2017-05-11T11:47:13.121Z,23.97
2017-05-11T11:48:13.125Z,23.95
2017-05-11T11:49:13.135Z,23.85
2017-05-11T11:50:12.874Z,23.78
2017-05-11T11:51:13.139Z,23.51
2017-05-11T11:52:13.245Z,23.65
2017-05-11T11:53:13.181Z,23.85
2017-05-11T11:54:12.894Z,23.73
2017-05-11T11:55:13.159Z,23.78
2017-05-11T11:56:12.539Z,23.85
2017-05-11T11:57:13.166Z,23.87
2017-05-11T11:58:13.227Z,23.8
2017-05-11T11:59:13.173Z,23.94
2017-05-11T12:00:12.870Z,23.94
2017-05-11T12:01:12.887Z,23.87
2017-05-11T12:02:13.201Z,23.84
2017-05-11T12:03:13.233Z,23.75
2017-05-11T12:04:13.287Z,23.68
2017-05-11T12:05:13.277Z,23.69
2017-05-11T12:06:13.210Z,23.65
2017-05-11T12:07:13.222Z,23.63
2017-05-11T12:08:12.912Z,23.65
2017-05-11T12:09:13.218Z,23.66
2017-05-11T12:10:12.652Z,23.75
2017-05-11T12:11:13.284Z,23.78
2017-05-11T12:12:13.238Z,23.73
2017-05-11T12:13:12.926Z,23.78
2017-05-11T12:14:13.246Z,23.79
2017-05-11T12:15:12.938Z,23.8
2017-05-11T12:16:12.948Z,23.76
2017-05-11T12:17:13.383Z,23.85
2017-05-11T12:18:13.268Z,23.84
2017-05-11T12:19:13.280Z,23.8
2017-05-11T12:20:13.305Z,23.87
2017-05-11T12:21:12.981Z,23.88
2017-05-11T12:22:13.198Z,23.8
2017-05-11T12:23:13.059Z,23.8
2017-05-11T12:24:13.324Z,23.8
2017-05-11T12:25:13.325Z,23.83
2017-05-11T12:26:13.329Z,23.88
2017-05-11T12:27:13.335Z,23.79
2017-05-11T12:28:12.715Z,23.84
2017-05-11T12:29:12.729Z,23.84
2017-05-11T12:30:13.356Z,23.76
2017-05-11T12:31:13.361Z,23.78
2017-05-11T12:32:13.106Z,23.8
2017-05-11T12:33:13.376Z,23.78
2017-05-11T12:34:13.378Z,23.8
2017-05-11T12:35:13.404Z,23.83
2017-05-11T12:36:13.134Z,23.83
2017-05-11T12:37:12.835Z,23.79
2017-05-11T12:38:12.787Z,23.79
2017-05-11T12:39:13.107Z,23.78
2017-05-11T12:40:13.432Z,23.9
2017-05-11T12:41:13.435Z,23.83
2017-05-11T12:42:13.441Z,23.9
2017-05-11T12:43:13.139Z,23.85
2017-05-11T12:44:13.142Z,23.87
2017-05-11T12:45:13.535Z,23.85
2017-05-11T12:46:13.160Z,23.83
2017-05-11T12:47:13.500Z,23.79
2017-05-11T12:48:12.856Z,23.78
2017-05-11T12:49:13.487Z,23.8
2017-05-11T12:50:13.496Z,23.78
2017-05-11T12:51:13.193Z,23.73
2017-05-11T12:52:13.202Z,23.78
2017-05-11T12:53:13.518Z,23.75
2017-05-11T12:54:13.524Z,23.8
2017-05-11T12:55:13.589Z,23.8
2017-05-11T12:56:13.546Z,23.85
2017-05-11T12:57:13.550Z,23.84
2017-05-11T12:58:13.242Z,23.8
2017-05-11T12:59:12.939Z,23.79
2017-05-11T13:00:13.254Z,23.8